createdAt,value
2018-09-11T00:00:53.130Z,1018.74
2018-09-11T00:01:53.025Z,1018.77
2018-09-11T00:02:52.971Z,1018.74
2018-09-11T00:03:52.896Z,1018.77
2018-09-11T00:06:34.845Z,1018.75
2018-09-11T00:07:35.774Z,1018.72
2018-09-11T00:08:34.655Z,1018.76
2018-09-11T00:09:34.602Z,1018.75
2018-09-11T00:10:34.555Z,1018.72
2018-09-11T00:11:34.421Z,1018.72
2018-09-11T00:12:34.341Z,1018.69
2018-09-11T00:13:34.260Z,1018.69
2018-09-11T00:14:34.203Z,1018.68
2018-09-11T00:17:16.319Z,1018.68
2018-09-11T00:18:16.260Z,1018.65
2018-09-11T00:19:16.171Z,1018.65
2018-09-11T00:20:16.108Z,1018.63
2018-09-11T00:21:15.996Z,1018.65
2018-09-11T00:22:15.930Z,1018.66
2018-09-11T00:23:15.965Z,1018.62
2018-09-11T00:24:15.765Z,1018.63
2018-09-11T00:27:39.858Z,1018.66
2018-09-11T00:28:39.753Z,1018.65
2018-09-11T00:29:39.685Z,1018.69
2018-09-11T00:30:39.587Z,1018.63
2018-09-11T00:31:39.510Z,1018.61
2018-09-11T00:32:39.427Z,1018.67
2018-09-11T00:33:39.379Z,1018.63
2018-09-11T00:34:39.270Z,1018.60
2018-09-11T00:35:39.184Z,1018.64
2018-09-11T00:36:39.102Z,1018.61
2018-09-11T00:37:39.026Z,1018.66
2018-09-11T00:38:38.970Z,1018.63
2018-09-11T00:39:38.869Z,1018.65
2018-09-11T00:40:38.816Z,1018.64
2018-09-11T00:41:38.712Z,1018.67
2018-09-11T00:42:38.631Z,1018.66
2018-09-11T00:43:38.550Z,1018.64
2018-09-11T00:44:38.471Z,1018.62
2018-09-11T00:45:38.410Z,1018.63
2018-09-11T00:46:38.313Z,1018.60
2018-09-11T00:47:38.234Z,1018.59
2018-09-11T00:48:38.153Z,1018.59
2018-09-11T00:49:38.073Z,1018.60
2018-09-11T00:50:38.005Z,1018.58
2018-09-11T00:51:37.915Z,1018.51
2018-09-11T00:52:37.832Z,1018.54
2018-09-11T00:53:37.742Z,1018.56
2018-09-11T00:54:37.681Z,1018.52
2018-09-11T00:55:37.612Z,1018.55
2018-09-11T00:56:37.520Z,1018.52
2018-09-11T00:57:37.440Z,1018.53
2018-09-11T00:58:37.351Z,1018.55
2018-09-11T01:01:19.367Z,1018.45
2018-09-11T01:04:01.334Z,1018.45
2018-09-11T01:05:01.264Z,1018.46
2018-09-11T01:06:01.193Z,1018.45
2018-09-11T01:07:01.107Z,1018.49
2018-09-11T01:08:01.026Z,1018.48
2018-09-11T01:10:42.847Z,1018.51
2018-09-11T01:11:42.786Z,1018.49
2018-09-11T01:12:42.675Z,1018.46
2018-09-11T01:13:42.602Z,1018.46
2018-09-11T01:14:42.522Z,1018.49
2018-09-11T01:17:24.354Z,1018.43
2018-09-11T01:18:24.268Z,1018.45
2018-09-11T01:19:24.177Z,1018.49
2018-09-11T01:20:24.116Z,1018.51
2018-09-11T01:21:24.206Z,1018.47
2018-09-11T01:22:23.950Z,1018.46
2018-09-11T01:47:06.366Z,1018.24
2018-09-11T01:48:06.339Z,1018.22
2018-09-11T01:49:06.197Z,1018.25
2018-09-11T01:50:06.122Z,1018.22
2018-09-11T01:51:06.038Z,1018.20
2018-09-11T01:53:47.857Z,1018.20
2018-09-11T01:54:47.768Z,1018.21
2018-09-11T01:55:47.683Z,1018.21
2018-09-11T01:56:47.626Z,1018.26
2018-09-11T01:57:47.540Z,1018.23
2018-09-11T02:00:20.620Z,1018.22
2018-09-11T02:01:18.875Z,1018.22
2018-09-11T02:02:18.831Z,1018.22
2018-09-11T02:03:18.736Z,1018.24
2018-09-11T02:04:18.663Z,1018.20
2018-09-11T02:05:18.558Z,1018.16
2018-09-11T02:06:18.493Z,1018.10
2018-09-11T02:07:18.400Z,1018.05
2018-09-11T02:08:18.326Z,1018.02
2018-09-11T02:09:18.273Z,1018.04
2018-09-11T02:10:18.169Z,1018.06
2018-09-11T02:11:18.080Z,1018.00
2018-09-11T02:12:18.001Z,1018.00
2018-09-11T02:13:17.938Z,1018.02
2018-09-11T02:14:17.927Z,1018.00
2018-09-11T02:15:17.787Z,1018.02
2018-09-11T02:16:17.684Z,1017.99
2018-09-11T02:17:17.654Z,1018.00
2018-09-11T02:18:17.549Z,1018.06
2018-09-11T02:19:17.436Z,1018.10
2018-09-11T02:20:17.517Z,1018.09
2018-09-11T02:21:17.281Z,1018.14
2018-09-11T02:23:59.557Z,1018.12
2018-09-11T02:24:59.452Z,1018.05
2018-09-11T02:25:59.375Z,1018.06
2018-09-11T02:26:59.310Z,1018.03
2018-09-11T02:27:59.217Z,1018.06
2018-09-11T02:28:59.166Z,1018.09
2018-09-11T02:29:59.104Z,1018.09
2018-09-11T02:30:58.967Z,1018.07
2018-09-11T02:31:58.882Z,1018.13
2018-09-11T02:32:58.818Z,1018.14
2018-09-11T02:33:58.724Z,1018.12
2018-09-11T02:34:58.672Z,1018.14
2018-09-11T02:35:58.604Z,1018.18
2018-09-11T02:36:58.496Z,1018.20
2018-09-11T02:37:58.407Z,1018.21
2018-09-11T02:38:58.336Z,1018.26
2018-09-11T02:39:58.249Z,1018.25
2018-09-11T02:40:58.202Z,1018.28
2018-09-11T02:41:58.087Z,1018.27
2018-09-11T02:42:58.005Z,1018.31
2018-09-11T02:43:57.919Z,1018.32
2018-09-11T02:44:57.863Z,1018.41
2018-09-11T02:45:57.788Z,1018.41
2018-09-11T02:46:57.696Z,1018.42
2018-09-11T02:47:57.614Z,1018.41
2018-09-11T02:48:57.533Z,1018.44
2018-09-11T02:49:57.447Z,1018.46
2018-09-11T02:50:57.367Z,1018.46
2018-09-11T02:51:57.306Z,1018.46
2018-09-11T02:52:57.216Z,1018.49
2018-09-11T02:53:57.124Z,1018.48
2018-09-11T02:54:57.052Z,1018.52
2018-09-11T02:55:57.048Z,1018.49
2018-09-11T02:56:57.903Z,1018.50
2018-09-11T02:57:56.806Z,1018.44
2018-09-11T02:58:56.744Z,1018.44
2018-09-11T02:59:56.647Z,1018.46
2018-09-11T03:00:56.604Z,1018.43
2018-09-11T03:01:56.482Z,1018.44
2018-09-11T03:02:56.416Z,1018.46
2018-09-11T03:03:56.323Z,1018.48
2018-09-11T03:04:56.251Z,1018.47
2018-09-11T03:05:56.169Z,1018.51
2018-09-11T03:06:56.135Z,1018.45
2018-09-11T03:07:56.004Z,1018.48
2018-09-11T03:10:38.039Z,1018.46
2018-09-11T03:13:20.060Z,1018.48
2018-09-11T03:14:19.982Z,1018.44
2018-09-11T03:15:19.876Z,1018.43
2018-09-11T03:16:19.815Z,1018.43
2018-09-11T03:17:19.743Z,1018.45
2018-09-11T03:18:19.645Z,1018.45
2018-09-11T03:19:19.553Z,1018.41
2018-09-11T03:20:19.481Z,1018.40
2018-09-11T03:21:19.407Z,1018.45
2018-09-11T03:22:19.346Z,1018.49
2018-09-11T03:23:19.243Z,1018.47
2018-09-11T03:26:01.552Z,1018.48
2018-09-11T03:27:01.487Z,1018.49
2018-09-11T03:28:01.407Z,1018.47
2018-09-11T03:29:01.318Z,1018.49
2018-09-11T03:30:01.232Z,1018.50
2018-09-11T03:31:01.149Z,1018.47
2018-09-11T03:32:01.061Z,1018.46
2018-09-11T03:33:01.015Z,1018.46
2018-09-11T03:34:00.897Z,1018.48
2018-09-11T03:35:00.830Z,1018.44
2018-09-11T03:36:00.741Z,1018.45
2018-09-11T03:37:00.667Z,1018.43
2018-09-11T03:38:00.599Z,1018.41
2018-09-11T03:39:00.510Z,1018.44
2018-09-11T03:40:00.427Z,1018.45
2018-09-11T03:42:42.580Z,1018.49
2018-09-11T03:43:42.474Z,1018.48
2018-09-11T03:44:42.385Z,1018.45
2018-09-11T03:45:42.312Z,1018.47
2018-09-11T03:46:42.224Z,1018.48
2018-09-11T03:47:42.155Z,1018.47
2018-09-11T03:48:42.087Z,1018.52
2018-09-11T03:49:42.001Z,1018.50
2018-09-11T03:50:41.908Z,1018.49
2018-09-11T03:51:41.844Z,1018.48
2018-09-11T03:52:41.774Z,1018.46
2018-09-11T03:53:42.701Z,1018.51
2018-09-11T03:54:41.592Z,1018.48
2018-09-11T03:55:41.547Z,1018.49
2018-09-11T03:56:41.422Z,1018.50
2018-09-11T03:57:41.364Z,1018.51
2018-09-11T03:58:41.312Z,1018.51
2018-09-11T03:59:41.198Z,1018.54
2018-09-11T04:00:41.103Z,1018.58
2018-09-11T04:03:23.081Z,1018.60
2018-09-11T04:04:44.084Z,1018.60
2018-09-11T04:05:22.916Z,1018.63
2018-09-11T04:06:22.810Z,1018.64
2018-09-11T04:07:22.885Z,1018.65
2018-09-11T04:08:22.661Z,1018.65
2018-09-11T04:09:22.685Z,1018.64
2018-09-11T04:10:22.501Z,1018.66
2018-09-11T04:11:22.463Z,1018.66
2018-09-11T04:12:22.340Z,1018.66
2018-09-11T04:13:22.360Z,1018.68
2018-09-11T04:14:22.203Z,1018.67
2018-09-11T04:17:04.056Z,1018.69
2018-09-11T04:18:04.060Z,1018.68
2018-09-11T04:19:03.893Z,1018.71
2018-09-11T04:20:03.915Z,1018.65
2018-09-11T04:21:03.729Z,1018.66
2018-09-11T04:22:03.663Z,1018.70
2018-09-11T04:23:03.576Z,1018.70
2018-09-11T04:24:03.596Z,1018.67
2018-09-11T04:25:03.462Z,1018.70
2018-09-11T04:26:03.405Z,1018.64
2018-09-11T04:27:03.261Z,1018.64
2018-09-11T04:28:03.325Z,1018.66
2018-09-11T04:29:03.123Z,1018.64
2018-09-11T04:30:03.174Z,1018.68
2018-09-11T04:31:02.993Z,1018.72
2018-09-11T04:32:03.594Z,1018.73
2018-09-11T04:33:02.777Z,1018.73
2018-09-11T04:34:02.743Z,1018.74
2018-09-11T04:35:02.635Z,1018.65
2018-09-11T04:36:02.645Z,1018.62
2018-09-11T04:37:02.460Z,1018.65
2018-09-11T04:38:02.389Z,1018.64
2018-09-11T04:39:02.302Z,1018.62
2018-09-11T04:40:02.250Z,1018.55
2018-09-11T04:41:02.137Z,1018.56
2018-09-11T04:42:02.077Z,1018.50
2018-09-11T04:43:02.050Z,1018.59
2018-09-11T04:44:01.900Z,1018.58
2018-09-11T04:45:01.838Z,1018.58
2018-09-11T04:46:01.787Z,1018.62
2018-09-11T04:47:01.676Z,1018.62
2018-09-11T04:48:01.586Z,1018.64
2018-09-11T04:49:01.502Z,1018.65
2018-09-11T04:50:01.555Z,1018.61
2018-09-11T04:51:01.349Z,1018.61
2018-09-11T04:53:43.580Z,1018.60
2018-09-11T04:54:43.494Z,1018.59
2018-09-11T04:55:43.423Z,1018.56
2018-09-11T04:56:43.337Z,1018.59
2018-09-11T04:57:43.248Z,1018.55
2018-09-11T04:58:43.179Z,1018.56
2018-09-11T05:22:05.355Z,1018.37
2018-09-11T05:23:05.158Z,1018.38
2018-09-11T05:24:05.087Z,1018.37
2018-09-11T05:25:04.982Z,1018.40
2018-09-11T05:26:04.916Z,1018.40
2018-09-11T05:27:04.874Z,1018.41
2018-09-11T05:28:04.770Z,1018.41
2018-09-11T05:29:04.663Z,1018.39
2018-09-11T05:30:04.612Z,1018.43
2018-09-11T05:31:04.513Z,1018.46
2018-09-11T05:32:04.455Z,1018.49
2018-09-11T05:33:04.351Z,1018.44
2018-09-11T05:34:04.273Z,1018.45
2018-09-11T05:35:04.193Z,1018.47
2018-09-11T05:36:04.116Z,1018.49
2018-09-11T05:37:04.039Z,1018.48
2018-09-11T05:38:03.993Z,1018.49
2018-09-11T05:39:03.935Z,1018.49
2018-09-11T05:40:03.803Z,1018.53
2018-09-11T05:41:03.715Z,1018.53
2018-09-11T05:42:03.647Z,1018.55
2018-09-11T05:43:03.544Z,1018.59
2018-09-11T05:45:45.589Z,1018.52
2018-09-11T05:46:45.539Z,1018.55
2018-09-11T05:47:45.443Z,1018.56
2018-09-11T05:50:27.589Z,1018.57
2018-09-11T05:51:27.556Z,1018.51
2018-09-11T05:52:27.466Z,1018.56
2018-09-11T05:53:27.380Z,1018.57
2018-09-11T05:54:27.258Z,1018.56
2018-09-11T05:55:27.197Z,1018.57
2018-09-11T05:56:27.107Z,1018.59
2018-09-11T05:57:27.035Z,1018.56
2018-09-11T05:58:27.036Z,1018.58
2018-09-11T05:59:26.868Z,1018.54
2018-09-11T06:00:26.784Z,1018.53
2018-09-11T06:01:26.738Z,1018.53
2018-09-11T06:02:26.622Z,1018.59
2018-09-11T06:03:26.570Z,1018.56
2018-09-11T06:04:26.459Z,1018.58
2018-09-11T06:05:26.400Z,1018.60
2018-09-11T06:06:26.303Z,1018.62
2018-09-11T06:07:26.393Z,1018.62
2018-09-11T06:08:26.139Z,1018.61
2018-09-11T06:11:08.133Z,1018.59
2018-09-11T06:12:09.032Z,1018.63
2018-09-11T06:13:07.931Z,1018.60
2018-09-11T06:14:07.873Z,1018.60
2018-09-11T06:15:07.767Z,1018.63
2018-09-11T06:17:49.599Z,1018.63
2018-09-11T06:18:50.658Z,1018.62
2018-09-11T06:19:49.425Z,1018.65
2018-09-11T06:20:49.364Z,1018.65
2018-09-11T06:21:49.273Z,1018.63
2018-09-11T06:22:49.192Z,1018.63
2018-09-11T06:23:49.132Z,1018.65
2018-09-11T06:24:49.049Z,1018.67
2018-09-11T06:25:49.023Z,1018.67
2018-09-11T06:29:35.121Z,1018.68
2018-09-11T06:30:35.017Z,1018.71
2018-09-11T06:31:34.945Z,1018.69
2018-09-11T06:32:34.862Z,1018.68
2018-09-11T06:33:34.787Z,1018.73
2018-09-11T06:34:34.716Z,1018.72
2018-09-11T06:46:11.543Z,1018.76
2018-09-11T06:47:11.423Z,1018.81
2018-09-11T06:48:11.349Z,1018.80
2018-09-11T06:49:11.379Z,1018.96
2018-09-11T06:50:11.209Z,1018.94
2018-09-11T06:51:11.096Z,1018.90
2018-09-11T06:53:53.108Z,1018.90
2018-09-11T06:54:53.129Z,1018.89
2018-09-11T06:55:53.163Z,1018.87
2018-09-11T06:56:52.872Z,1018.90
2018-09-11T06:57:52.797Z,1018.91
2018-09-11T06:58:52.741Z,1018.88
2018-09-11T06:59:52.648Z,1018.90
2018-09-11T07:00:52.589Z,1018.97
2018-09-11T07:01:52.520Z,1018.95
2018-09-11T07:02:52.394Z,1019.00
2018-09-11T07:03:52.322Z,1018.95
2018-09-11T07:04:52.304Z,1018.93
2018-09-11T07:05:52.188Z,1018.92
2018-09-11T07:06:52.085Z,1018.90
2018-09-11T07:07:52.092Z,1018.84
2018-09-11T07:08:51.923Z,1018.81
2018-09-11T07:09:51.841Z,1018.89
2018-09-11T07:10:51.816Z,1018.90
2018-09-11T07:11:51.709Z,1018.90
2018-09-11T07:12:51.618Z,1018.99
2018-09-11T07:13:51.533Z,1018.96
2018-09-11T07:14:51.537Z,1018.95
2018-09-11T07:15:51.525Z,1018.97
2018-09-11T07:16:51.399Z,1019.01
2018-09-11T07:17:51.230Z,1018.96
2018-09-11T07:18:51.161Z,1018.92
2018-09-11T07:19:51.168Z,1018.94
2018-09-11T07:20:52.015Z,1018.98
2018-09-11T07:21:51.083Z,1019.02
2018-09-11T07:22:50.857Z,1019.00
2018-09-11T07:23:50.787Z,1018.97
2018-09-11T07:24:50.733Z,1018.96
2018-09-11T07:25:51.219Z,1019.01
2018-09-11T07:26:50.883Z,1019.05
2018-09-11T07:27:50.642Z,1019.08
2018-09-11T07:28:51.150Z,1019.00
2018-09-11T07:29:50.319Z,1019.07
2018-09-11T07:30:50.231Z,1019.08
2018-09-11T07:31:50.177Z,1019.09
2018-09-11T07:32:50.093Z,1019.00
2018-09-11T07:33:50.007Z,1019.07
2018-09-11T07:36:32.169Z,1018.99
2018-09-11T07:37:33.475Z,1018.99
2018-09-11T07:38:31.967Z,1019.02
2018-09-11T07:39:31.892Z,1019.07
2018-09-11T07:40:31.808Z,1019.03
2018-09-11T07:41:31.735Z,1019.08
2018-09-11T07:42:31.747Z,1019.01
2018-09-11T07:43:31.604Z,1019.13
2018-09-11T07:44:31.497Z,1019.11
2018-09-11T07:45:31.495Z,1019.12
2018-09-11T07:46:31.341Z,1019.07
2018-09-11T07:47:31.286Z,1019.09
2018-09-11T07:48:31.208Z,1019.03
2018-09-11T07:49:31.112Z,1019.09
2018-09-11T07:50:31.017Z,1019.17
2018-09-11T07:51:30.963Z,1019.15
2018-09-11T07:52:30.984Z,1019.11
2018-09-11T07:53:30.807Z,1019.14
2018-09-11T07:54:30.708Z,1019.38
2018-09-11T07:55:30.639Z,1019.11
2018-09-11T07:56:30.578Z,1019.38
2018-09-11T07:57:30.522Z,1019.31
2018-09-11T07:58:30.416Z,1019.36
2018-09-11T08:01:12.645Z,1019.33
2018-09-11T08:02:12.576Z,1019.39
2018-09-11T08:03:12.571Z,1019.37
2018-09-11T08:04:12.414Z,1019.37
2018-09-11T08:05:12.355Z,1019.38
2018-09-11T08:06:12.250Z,1019.18
2018-09-11T08:07:12.177Z,1019.44
2018-09-11T08:08:12.129Z,1019.48
2018-09-11T08:09:12.012Z,1019.48
2018-09-11T08:11:54.815Z,1019.47
2018-09-11T08:12:54.772Z,1019.43
2018-09-11T08:13:53.976Z,1019.45
2018-09-11T08:14:53.918Z,1019.50
2018-09-11T08:15:53.836Z,1019.48
2018-09-11T08:16:53.776Z,1019.43
2018-09-11T08:17:53.721Z,1019.45
2018-09-11T08:18:53.649Z,1019.39
2018-09-11T08:19:53.542Z,1019.42
2018-09-11T08:20:53.469Z,1019.35
2018-09-11T08:21:53.386Z,1019.33
2018-09-11T08:22:53.320Z,1019.31
2018-09-11T08:23:53.278Z,1019.40
2018-09-11T08:24:53.201Z,1019.45
2018-09-11T08:25:53.104Z,1019.14
2018-09-11T08:26:53.040Z,1019.32
2018-09-11T08:27:52.971Z,1019.31
2018-09-11T08:28:53.911Z,1019.42
2018-09-11T08:29:52.814Z,1019.35
2018-09-11T08:30:52.757Z,1019.44
2018-09-11T08:31:52.666Z,1019.45
2018-09-11T08:32:52.597Z,1019.46
2018-09-11T08:33:52.550Z,1019.45
2018-09-11T08:34:52.468Z,1019.32
2018-09-11T08:35:52.485Z,1019.43
2018-09-11T08:38:34.648Z,1019.47
2018-09-11T08:39:34.620Z,1019.34
2018-09-11T08:40:34.489Z,1019.40
2018-09-11T08:41:34.436Z,1019.34
2018-09-11T08:42:34.363Z,1019.36
2018-09-11T08:43:34.296Z,1019.29
2018-09-11T08:44:34.242Z,1019.35
2018-09-11T08:47:16.153Z,1019.30
2018-09-11T08:48:16.089Z,1019.38
2018-09-11T08:49:16.055Z,1019.31
2018-09-11T08:50:15.936Z,1019.41
2018-09-11T08:51:15.860Z,1019.42
2018-09-11T08:53:58.296Z,1019.27
2018-09-11T08:54:58.144Z,1019.42
2018-09-11T08:55:58.146Z,1019.46
2018-09-11T08:56:58.087Z,1019.45
2018-09-11T08:57:57.879Z,1019.46
2018-09-11T08:58:58.776Z,1019.57
2018-09-11T08:59:57.751Z,1019.53
2018-09-11T09:00:57.746Z,1019.48
2018-09-11T09:01:57.602Z,1019.61
2018-09-11T09:02:57.525Z,1019.20
2018-09-11T09:03:57.608Z,1019.54
2018-09-11T09:04:57.413Z,1019.52
2018-09-11T09:08:42.705Z,1019.53
2018-09-11T09:09:42.621Z,1019.48
2018-09-11T09:10:42.548Z,1019.57
2018-09-11T09:11:42.452Z,1019.61
2018-09-11T09:12:42.402Z,1019.56
2018-09-11T09:13:42.316Z,1019.63
2018-09-11T09:14:42.283Z,1019.56
2018-09-11T09:15:42.362Z,1019.47
2018-09-11T09:16:42.113Z,1019.47
2018-09-11T09:17:42.044Z,1019.48
2018-09-11T09:18:42.057Z,1019.51
2018-09-11T09:19:41.918Z,1019.42
2018-09-11T09:20:41.853Z,1019.47
2018-09-11T09:21:41.924Z,1019.50
2018-09-11T09:24:23.677Z,1019.26
2018-09-11T09:25:23.826Z,1019.26
2018-09-11T09:26:23.556Z,1019.43
2018-09-11T09:27:23.489Z,1019.48
2018-09-11T09:28:23.384Z,1019.25
2018-09-11T09:52:45.427Z,1019.37
2018-09-11T09:53:45.298Z,1019.14
2018-09-11T09:54:45.281Z,1019.03
2018-09-11T09:57:27.216Z,1019.22
2018-09-11T09:58:27.124Z,1019.11
2018-09-11T09:59:27.078Z,1019.24
2018-09-11T10:00:27.003Z,1019.19
2018-09-11T10:01:26.900Z,1019.46
2018-09-11T10:02:26.876Z,1019.46
2018-09-11T10:03:26.778Z,1019.56
2018-09-11T10:04:26.745Z,1019.49
2018-09-11T10:05:26.621Z,1019.17
2018-09-11T10:08:08.709Z,1019.57
2018-09-11T10:10:50.686Z,1019.65
2018-09-11T10:11:50.640Z,1019.70
2018-09-11T10:12:50.567Z,1019.65
2018-09-11T10:13:50.479Z,1019.71
2018-09-11T10:14:50.413Z,1019.31
2018-09-11T10:17:32.753Z,1019.59
2018-09-11T10:18:32.676Z,1019.79
2018-09-11T10:19:32.543Z,1019.67
2018-09-11T10:20:32.492Z,1019.68
2018-09-11T10:21:32.494Z,1019.65
2018-09-11T10:22:32.352Z,1019.66
2018-09-11T10:23:32.322Z,1019.10
2018-09-11T10:24:32.231Z,1019.49
2018-09-11T10:25:32.165Z,1019.52
2018-09-11T10:28:14.229Z,1019.53
2018-09-11T10:29:14.143Z,1019.54
2018-09-11T10:39:12.192Z,1019.41
2018-09-11T10:40:12.097Z,1019.42
2018-09-11T10:42:54.199Z,1019.38
2018-09-11T10:43:54.162Z,1019.31
2018-09-11T10:44:54.062Z,1019.53
2018-09-11T10:45:54.004Z,1019.38
2018-09-11T10:46:53.922Z,1019.40
2018-09-11T10:47:53.857Z,1019.38
2018-09-11T10:48:53.877Z,1019.41
2018-09-11T10:49:53.846Z,1019.45
2018-09-11T10:50:53.666Z,1019.47
2018-09-11T10:51:53.635Z,1019.35
2018-09-11T10:52:53.540Z,1019.38
2018-09-11T10:55:35.789Z,1019.47
2018-09-11T10:56:35.641Z,1019.18
2018-09-11T10:57:35.554Z,1019.26
2018-09-11T10:58:35.504Z,1019.32
2018-09-11T10:59:35.453Z,1019.30
2018-09-11T11:02:17.708Z,1019.25
2018-09-11T11:06:38.704Z,1019.29
2018-09-11T11:09:20.761Z,1018.93
2018-09-11T11:10:20.672Z,1019.32
2018-09-11T11:11:20.593Z,1019.33
2018-09-11T11:12:20.508Z,1019.37
2018-09-11T11:13:20.479Z,1019.48
2018-09-11T11:14:20.390Z,1018.83
2018-09-11T11:15:20.300Z,1019.26
2018-09-11T11:16:20.265Z,1019.27
2018-09-11T11:17:20.175Z,1019.51
2018-09-11T11:18:20.122Z,1019.38
2018-09-11T11:19:20.047Z,1019.34
2018-09-11T11:20:21.002Z,1019.36
2018-09-11T11:21:19.920Z,1019.33
2018-09-11T11:22:19.838Z,1019.14
2018-09-11T11:23:19.762Z,1019.26
2018-09-11T11:24:19.715Z,1019.34
2018-09-11T11:25:19.709Z,1019.39
2018-09-11T11:26:19.592Z,1019.43
2018-09-11T11:27:19.575Z,1019.50
2018-09-11T11:28:19.445Z,1019.47
2018-09-11T11:29:19.396Z,1019.39
2018-09-11T11:30:19.321Z,1019.43
2018-09-11T11:31:19.230Z,1019.49
2018-09-11T11:32:19.192Z,1019.64
2018-09-11T11:33:19.128Z,1019.51
2018-09-11T11:34:19.048Z,1019.70
2018-09-11T11:35:18.993Z,1019.75
2018-09-11T11:38:01.227Z,1019.90
2018-09-11T11:39:01.155Z,1019.95
2018-09-11T11:40:01.085Z,1018.74
2018-09-11T11:41:01.064Z,1020.02
2018-09-11T11:42:00.953Z,1020.12
2018-09-11T11:43:00.890Z,1020.16
2018-09-11T11:44:00.861Z,1020.12
2018-09-11T11:45:00.756Z,1020.29
2018-09-11T11:46:00.708Z,1020.32
2018-09-11T11:47:00.621Z,1020.45
2018-09-11T11:48:00.554Z,1020.29
2018-09-11T11:49:01.512Z,1020.26
2018-09-11T11:50:00.416Z,1020.59
2018-09-11T11:51:01.372Z,1020.24
2018-09-11T11:52:00.275Z,1018.92
2018-09-11T11:53:00.236Z,1018.69
2018-09-11T11:54:00.149Z,1018.49
2018-09-11T11:55:00.155Z,1018.52
2018-09-11T11:56:00.042Z,1018.55
2018-09-11T11:57:00.970Z,1018.50
2018-09-11T11:57:59.886Z,1018.47
2018-09-11T11:58:59.864Z,1018.44
2018-09-11T11:59:59.755Z,1018.41
2018-09-11T12:00:59.697Z,1018.47
2018-09-11T12:01:59.683Z,1018.45
2018-09-11T12:04:41.729Z,1018.43
2018-09-11T12:07:23.746Z,1018.39
2018-09-11T12:10:05.732Z,1018.30
2018-09-11T12:11:05.679Z,1018.34
2018-09-11T12:12:05.606Z,1018.33
2018-09-11T12:13:05.552Z,1018.34
2018-09-11T12:14:05.444Z,1018.24
2018-09-11T12:15:05.382Z,1018.25
2018-09-11T12:16:05.327Z,1018.26
2018-09-11T12:17:05.345Z,1018.25
2018-09-11T12:18:05.171Z,1018.19
2018-09-11T12:19:05.182Z,1018.26
2018-09-11T12:20:05.019Z,1018.26
2018-09-11T12:21:04.953Z,1018.14
2018-09-11T12:22:04.895Z,1018.13
2018-09-11T12:23:04.844Z,1018.15
2018-09-11T12:24:04.723Z,1018.25
2018-09-11T12:25:04.681Z,1018.10
2018-09-11T12:26:04.610Z,1018.12
2018-09-11T12:28:46.751Z,1018.23
2018-09-11T12:29:46.669Z,1018.11
2018-09-11T12:30:46.589Z,1018.18
2018-09-11T12:31:46.555Z,1018.08
2018-09-11T12:38:27.391Z,1018.03
2018-09-11T12:39:27.319Z,1017.98
2018-09-11T12:40:27.230Z,1017.99
2018-09-11T12:41:27.156Z,1018.06
2018-09-11T12:42:27.099Z,1017.98
2018-09-11T12:43:27.033Z,1017.96
2018-09-11T12:44:26.933Z,1017.93
2018-09-11T12:45:26.858Z,1017.99
2018-09-11T12:46:27.039Z,1017.88
2018-09-11T12:47:27.263Z,1017.94
2018-09-11T12:48:26.783Z,1017.97
2018-09-11T12:49:26.566Z,1017.99
2018-09-11T12:50:26.489Z,1018.04
2018-09-11T12:53:08.772Z,1017.90
2018-09-11T12:54:09.693Z,1017.86
2018-09-11T12:55:08.596Z,1017.80
2018-09-11T12:56:08.529Z,1017.82
2018-09-11T12:57:08.446Z,1017.83
2018-09-11T12:58:08.402Z,1017.79
2018-09-11T12:59:08.297Z,1017.78
2018-09-11T13:00:08.248Z,1017.75
2018-09-11T13:01:08.158Z,1017.78
2018-09-11T13:02:08.079Z,1017.81
2018-09-11T13:03:07.995Z,1017.88
2018-09-11T13:04:07.955Z,1017.82
2018-09-11T13:05:07.844Z,1017.84
2018-09-11T13:07:49.754Z,1017.88
2018-09-11T13:08:49.717Z,1017.83
2018-09-11T13:09:49.598Z,1017.86
2018-09-11T13:12:31.750Z,1017.76
2018-09-11T13:13:31.694Z,1017.77
2018-09-11T13:14:31.625Z,1017.73
2018-09-11T13:15:31.531Z,1017.74
2018-09-11T13:16:31.450Z,1017.75
2018-09-11T13:19:13.850Z,1017.75
2018-09-11T13:21:55.761Z,1017.76
2018-09-11T13:22:55.693Z,1017.62
2018-09-11T13:23:55.627Z,1017.64
2018-09-11T13:24:55.563Z,1017.77
2018-09-11T13:25:55.450Z,1017.66
2018-09-11T13:28:37.755Z,1017.62
2018-09-11T13:29:37.713Z,1017.60
2018-09-11T13:30:37.617Z,1017.53
2018-09-11T13:31:37.536Z,1017.50
2018-09-11T13:32:37.462Z,1017.56
2018-09-11T13:33:37.425Z,1017.56
2018-09-11T13:34:37.323Z,1017.50
2018-09-11T13:37:19.259Z,1017.46
2018-09-11T13:38:19.190Z,1017.44
2018-09-11T13:39:19.103Z,1017.51
2018-09-11T13:40:19.072Z,1017.44
2018-09-11T13:41:18.964Z,1017.49
2018-09-11T13:44:01.263Z,1017.39
2018-09-11T13:45:01.208Z,1017.37
2018-09-11T13:46:01.109Z,1017.37
2018-09-11T13:47:01.075Z,1017.35
2018-09-11T13:48:00.979Z,1017.34
2018-09-11T13:49:00.905Z,1017.36
2018-09-11T13:50:00.830Z,1017.40
2018-09-11T13:51:01.761Z,1017.41
2018-09-11T13:52:00.674Z,1017.34
2018-09-11T13:53:00.637Z,1017.31
2018-09-11T13:54:00.511Z,1017.29
2018-09-11T13:56:42.955Z,1017.24
2018-09-11T13:57:42.734Z,1017.27
2018-09-11T13:58:42.612Z,1017.33
2018-09-11T13:59:42.555Z,1017.31
2018-09-11T14:00:42.487Z,1017.32
2018-09-11T14:01:42.417Z,1017.32
2018-09-11T14:02:42.459Z,1017.29
2018-09-11T14:03:42.250Z,1017.27
2018-09-11T14:04:42.170Z,1017.27
2018-09-11T14:05:42.127Z,1017.24
2018-09-11T14:06:42.038Z,1017.24
2018-09-11T14:07:41.945Z,1017.16
2018-09-11T14:08:41.904Z,1017.20
2018-09-11T14:11:24.901Z,1017.10
2018-09-11T14:12:23.711Z,1017.14
2018-09-11T14:13:23.624Z,1017.13
2018-09-11T14:14:23.551Z,1017.10
2018-09-11T14:15:23.467Z,1017.07
2018-09-11T14:16:23.433Z,1017.08
2018-09-11T14:17:23.329Z,1017.16
2018-09-11T14:18:23.256Z,1017.04
2018-09-11T14:19:23.172Z,1017.09
2018-09-11T14:20:23.111Z,1017.07
2018-09-11T14:21:23.109Z,1017.10
2018-09-11T14:22:22.979Z,1017.07
2018-09-11T14:23:22.876Z,1017.09
2018-09-11T14:24:22.801Z,1016.94
2018-09-11T14:25:22.723Z,1017.08
2018-09-11T14:26:22.658Z,1017.10
2018-09-11T14:27:22.622Z,1017.06
2018-09-11T14:28:22.510Z,1017.16
2018-09-11T14:29:22.474Z,1017.14
2018-09-11T14:30:22.377Z,1017.11
2018-09-11T14:31:22.304Z,1017.09
2018-09-11T14:32:22.219Z,1017.03
2018-09-11T14:33:22.125Z,1017.04
2018-09-11T14:34:22.113Z,1017.08
2018-09-11T14:35:21.983Z,1016.98
2018-09-11T14:36:21.917Z,1017.12
2018-09-11T14:37:21.849Z,1017.01
2018-09-11T14:40:03.792Z,1017.03
2018-09-11T14:41:03.704Z,1017.11
2018-09-11T14:42:03.653Z,1017.06
2018-09-11T14:43:03.588Z,1017.03
2018-09-11T14:44:03.485Z,1016.98
2018-09-11T14:45:03.421Z,1016.99
2018-09-11T14:46:03.346Z,1017.03
2018-09-11T14:47:04.285Z,1017.00
2018-09-11T14:48:03.187Z,1016.96
2018-09-11T14:49:03.112Z,1016.95
2018-09-11T14:50:03.069Z,1016.94
2018-09-11T14:51:02.980Z,1016.97
2018-09-11T14:52:02.900Z,1016.98
2018-09-11T14:53:02.837Z,1016.96
2018-09-11T14:54:02.751Z,1016.97
2018-09-11T14:55:02.674Z,1017.01
2018-09-11T14:56:02.618Z,1016.94
2018-09-11T14:58:44.800Z,1016.86
2018-09-11T14:59:44.723Z,1016.93
2018-09-11T15:00:44.634Z,1016.93
2018-09-11T15:01:44.573Z,1016.92
2018-09-11T15:02:44.512Z,1016.99
2018-09-11T15:03:45.496Z,1016.92
2018-09-11T15:04:44.339Z,1017.00
2018-09-11T15:05:44.276Z,1016.95
2018-09-11T15:06:44.216Z,1016.94
2018-09-11T15:07:44.151Z,1016.88
2018-09-11T15:08:44.072Z,1016.93
2018-09-11T15:09:43.980Z,1016.86
2018-09-11T15:10:43.902Z,1016.92
2018-09-11T15:13:25.812Z,1016.89
2018-09-11T15:14:25.753Z,1016.99
2018-09-11T15:15:25.641Z,1016.91
2018-09-11T15:16:25.582Z,1016.89
2018-09-11T15:17:25.505Z,1016.91
2018-09-11T15:18:25.584Z,1016.91
2018-09-11T15:19:25.343Z,1016.98
2018-09-11T15:20:25.277Z,1016.90
2018-09-11T15:21:25.192Z,1016.87
2018-09-11T15:22:25.124Z,1016.88
2018-09-11T15:23:25.072Z,1016.78
2018-09-11T15:24:24.991Z,1016.74